createdAt,value
2022-10-09T00:01:01.274Z,22.3
2022-10-09T00:03:18.389Z,22.4
2022-10-09T00:05:35.448Z,22.3
2022-10-09T00:07:52.390Z,22.4
2022-10-09T00:10:09.497Z,22.5
2022-10-09T00:12:26.465Z,22.4
2022-10-09T00:14:43.718Z,22.3
2022-10-09T00:17:00.535Z,22.5
2022-10-09T00:19:17.539Z,22.4
2022-10-09T00:21:34.534Z,22.5
2022-10-09T00:23:51.464Z,22.5
2022-10-09T00:26:08.586Z,22.4
2022-10-09T00:28:25.024Z,22.3
2022-10-09T00:30:41.168Z,23.1
2022-10-09T00:32:58.049Z,22.4
2022-10-09T00:35:15.028Z,22.3
2022-10-09T00:37:32.041Z,22.4
2022-10-09T00:39:47.820Z,22.8
2022-10-09T00:42:04.258Z,22.3
2022-10-09T00:44:21.509Z,22.5
2022-10-09T00:46:37.110Z,22.5
2022-10-09T00:48:53.664Z,22.8
2022-10-09T00:51:10.425Z,22.4
2022-10-09T00:53:27.642Z,22.5
2022-10-09T00:55:44.541Z,22.4
2022-10-09T00:58:01.901Z,22.5
2022-10-09T01:00:19.152Z,22.5
2022-10-09T01:02:20.218Z,22.3
2022-10-09T01:02:35.299Z,22.6
2022-10-09T01:04:51.626Z,22.8
2022-10-09T01:07:08.391Z,22.4
2022-10-09T01:09:25.515Z,22.4
2022-10-09T01:11:42.491Z,22.2
2022-10-09T01:13:59.709Z,22.4
2022-10-09T01:16:20.319Z,22.3
2022-10-09T01:18:33.934Z,22.4
2022-10-09T01:20:50.967Z,22.5
2022-10-09T01:23:07.677Z,22.5
2022-10-09T01:25:23.695Z,22.9
2022-10-09T01:27:40.149Z,22.5
2022-10-09T01:29:56.901Z,22.4
2022-10-09T01:32:13.252Z,22.4
2022-10-09T01:34:30.213Z,22.6
2022-10-09T01:36:46.914Z,22.6
2022-10-09T01:39:03.877Z,22.4
2022-10-09T01:41:20.791Z,22.4
2022-10-09T01:43:37.930Z,22.3
2022-10-09T01:45:55.141Z,22.3
2022-10-09T01:47:56.911Z,22.3
2022-10-09T01:48:11.900Z,22.1
2022-10-09T01:50:29.070Z,22.3
2022-10-09T01:52:45.922Z,22.5
2022-10-09T01:55:02.756Z,22.4
2022-10-09T01:57:18.928Z,22.6
2022-10-09T01:59:35.874Z,22.5
2022-10-09T02:01:52.438Z,22.4
2022-10-09T02:04:08.874Z,22.6
2022-10-09T02:06:25.495Z,22.4
2022-10-09T02:08:42.811Z,22.1
2022-10-09T02:10:59.337Z,22.3
2022-10-09T02:13:16.170Z,22.3
2022-10-09T02:15:33.283Z,22.3
2022-10-09T02:17:49.908Z,22.3
2022-10-09T02:20:06.558Z,22.4
2022-10-09T02:22:22.904Z,22.8
2022-10-09T02:24:39.716Z,22.3
2022-10-09T02:26:56.417Z,22.3
2022-10-09T02:29:13.330Z,22.4
2022-10-09T02:31:30.425Z,22.2
2022-10-09T02:33:46.584Z,22.4
2022-10-09T02:36:02.890Z,22.9
2022-10-09T02:38:19.582Z,22.9
2022-10-09T02:40:36.290Z,22.6
2022-10-09T02:42:52.968Z,22.4
2022-10-09T02:44:54.708Z,22.3
2022-10-09T02:45:09.796Z,22.3
2022-10-09T02:47:26.784Z,22.4
2022-10-09T02:49:43.775Z,22.4
2022-10-09T02:52:00.558Z,22.3
2022-10-09T02:54:17.539Z,22.2
2022-10-09T02:56:38.026Z,22.4
2022-10-09T02:58:51.154Z,22.4
2022-10-09T03:01:08.170Z,22.4
2022-10-09T03:03:24.969Z,22.3
2022-10-09T03:05:41.984Z,22.4
2022-10-09T03:07:58.400Z,22.3
2022-10-09T03:10:14.962Z,22.7
2022-10-09T03:12:32.515Z,22.3
2022-10-09T03:14:48.510Z,22.4
2022-10-09T03:17:05.444Z,22.3
2022-10-09T03:19:21.948Z,22.3
2022-10-09T03:21:38.906Z,22.4
2022-10-09T03:23:55.771Z,22.3
2022-10-09T03:26:12.730Z,22.3
2022-10-09T03:28:29.455Z,22.1
2022-10-09T03:30:46.419Z,22.2
2022-10-09T03:33:20.420Z,22.3
2022-10-09T03:35:37.124Z,22.3
2022-10-09T03:37:53.518Z,22.2
2022-10-09T03:40:09.855Z,22.8
2022-10-09T03:42:26.790Z,22.4
2022-10-09T03:44:43.133Z,22.2
2022-10-09T03:46:59.957Z,22.3
2022-10-09T03:49:16.561Z,22.3
2022-10-09T03:51:33.295Z,22
2022-10-09T03:53:49.946Z,22.3
2022-10-09T03:56:06.709Z,22.3
2022-10-09T03:58:23.398Z,22.3
2022-10-09T04:00:40.265Z,22.2
2022-10-09T04:02:56.479Z,22.4
2022-10-09T04:05:12.862Z,22.4
2022-10-09T04:07:29.413Z,22.3
2022-10-09T04:09:46.073Z,22.3
2022-10-09T04:12:02.823Z,22.4
2022-10-09T04:14:04.278Z,22.1
2022-10-09T04:14:19.289Z,21.9
2022-10-09T04:16:36.084Z,22.3
2022-10-09T04:18:52.744Z,22.3
2022-10-09T04:21:09.583Z,22.2
2022-10-09T04:23:26.242Z,22.1
2022-10-09T04:25:27.855Z,22.3
2022-10-09T04:25:42.991Z,22.1
2022-10-09T04:28:00.377Z,22.2
2022-10-09T04:30:16.337Z,22.1
2022-10-09T04:32:33.280Z,22.2
2022-10-09T04:34:49.876Z,22.3
2022-10-09T04:37:06.706Z,22.1
2022-10-09T04:39:23.341Z,22.3
2022-10-09T04:41:40.291Z,22.2
2022-10-09T04:43:56.901Z,22.2
2022-10-09T04:46:13.908Z,22.1
2022-10-09T04:48:30.451Z,22.4
2022-10-09T04:50:47.315Z,22.2
2022-10-09T04:53:03.544Z,22.1
2022-10-09T04:55:19.866Z,22.6
2022-10-09T04:57:36.870Z,22.3
2022-10-09T04:59:53.394Z,22.3
2022-10-09T05:02:10.066Z,22.2
2022-10-09T05:04:26.320Z,22.6
2022-10-09T05:06:43.139Z,23.3
2022-10-09T05:08:59.905Z,22.6
2022-10-09T05:11:16.761Z,22.3
2022-10-09T05:13:33.645Z,22.4
2022-10-09T05:15:50.228Z,22
2022-10-09T05:18:19.209Z,22.4
2022-10-09T05:20:35.556Z,22.6
2022-10-09T05:22:52.568Z,23.1
2022-10-09T05:24:53.516Z,23.3
2022-10-09T05:25:08.736Z,22.4
2022-10-09T05:27:25.323Z,22.8
2022-10-09T05:29:41.874Z,22.4
2022-10-09T05:31:58.556Z,22.5
2022-10-09T05:34:15.053Z,22.4
2022-10-09T05:36:31.734Z,22
2022-10-09T05:38:48.589Z,22.1
2022-10-09T05:41:05.122Z,22.3
2022-10-09T05:43:21.973Z,22.4
2022-10-09T05:45:38.795Z,22.4
2022-10-09T05:47:55.700Z,22.4
2022-10-09T05:50:12.833Z,22.3
2022-10-09T05:52:29.781Z,22.3
2022-10-09T05:54:46.835Z,22.4
2022-10-09T05:57:03.855Z,22.4
2022-10-09T05:59:20.907Z,22.3
2022-10-09T06:01:38.103Z,22.5
2022-10-09T06:03:55.163Z,22.4
2022-10-09T06:06:11.684Z,22.3
2022-10-09T06:08:27.982Z,22.6
2022-10-09T06:10:44.578Z,22.3
2022-10-09T06:13:01.195Z,22.5
2022-10-09T06:15:18.390Z,22.3
2022-10-09T06:17:35.415Z,22.4
2022-10-09T06:19:52.457Z,22.4
2022-10-09T06:22:09.610Z,22.3
2022-10-09T06:24:28.962Z,22.4
2022-10-09T06:26:43.768Z,22.4
2022-10-09T06:29:00.723Z,22.3
2022-10-09T06:31:17.721Z,22.3
2022-10-09T06:33:34.742Z,22.3
2022-10-09T06:35:51.862Z,22.3
2022-10-09T06:38:08.734Z,22.2
2022-10-09T06:40:25.807Z,22.3
2022-10-09T06:42:42.759Z,22.1
2022-10-09T06:44:44.618Z,22.3
2022-10-09T06:44:59.640Z,22
2022-10-09T06:47:16.646Z,22.2
2022-10-09T06:49:33.581Z,22.5
2022-10-09T06:51:50.667Z,22.3
2022-10-09T06:54:07.708Z,22.3
2022-10-09T06:56:24.644Z,22.5
2022-10-09T06:58:41.604Z,22.4
2022-10-09T07:00:58.463Z,22.4
2022-10-09T07:03:15.442Z,22.3
2022-10-09T07:05:32.305Z,22.2
2022-10-09T07:07:49.210Z,22.3
2022-10-09T07:10:06.320Z,22.3
2022-10-09T07:12:22.851Z,22.4
2022-10-09T07:14:39.760Z,22.3
2022-10-09T07:16:56.487Z,22.4
2022-10-09T07:19:12.974Z,22.4
2022-10-09T07:21:29.835Z,22.4
2022-10-09T07:23:46.626Z,22.4
2022-10-09T07:26:02.499Z,22.3
2022-10-09T07:28:18.340Z,22.5
2022-10-09T07:30:35.093Z,22.4
2022-10-09T07:32:52.098Z,22.4
2022-10-09T07:35:08.485Z,22.6
2022-10-09T07:37:24.435Z,22.5
2022-10-09T07:39:24.415Z,22.5
2022-10-09T07:39:42.845Z,22.9
2022-10-09T07:41:55.428Z,22.8
2022-10-09T07:44:12.228Z,22.4
2022-10-09T07:46:33.164Z,22.4
2022-10-09T07:48:44.684Z,22.5
2022-10-09T07:51:00.407Z,22.6
2022-10-09T07:53:17.118Z,22.4
2022-10-09T07:55:33.746Z,22.3
2022-10-09T07:57:50.027Z,22.4
2022-10-09T08:00:06.242Z,22.3
2022-10-09T08:02:22.644Z,22.3
2022-10-09T08:04:38.885Z,22.2
2022-10-09T08:06:55.124Z,22.3
2022-10-09T08:09:11.471Z,22.3
2022-10-09T08:11:27.836Z,22.2
2022-10-09T08:13:43.395Z,22.3
2022-10-09T08:15:58.949Z,22.6
2022-10-09T08:18:15.302Z,22.1
2022-10-09T08:20:31.722Z,22.3
2022-10-09T08:22:48.316Z,22.2
2022-10-09T08:25:03.724Z,22.2
2022-10-09T08:27:19.247Z,22.5
2022-10-09T08:29:39.357Z,22.4
2022-10-09T08:31:49.956Z,22.7
2022-10-09T08:34:05.296Z,22.9
2022-10-09T08:36:20.751Z,23.1
2022-10-09T08:38:48.502Z,23
2022-10-09T08:41:04.777Z,22.8
2022-10-09T08:43:20.325Z,22.9
2022-10-09T08:45:36.445Z,23
2022-10-09T08:47:51.558Z,22.8
2022-10-09T08:50:07.315Z,23.2
2022-10-09T08:52:22.999Z,23.3
2022-10-09T08:54:38.963Z,23
2022-10-09T08:56:54.512Z,23
2022-10-09T08:59:10.544Z,22.9
2022-10-09T09:01:26.200Z,23.4
2022-10-09T09:03:41.830Z,23.1
2022-10-09T09:05:57.771Z,23.2
2022-10-09T09:08:13.599Z,23.1
2022-10-09T09:10:29.667Z,23.1
2022-10-09T09:12:45.550Z,23.5
2022-10-09T09:15:01.679Z,23
2022-10-09T09:17:17.333Z,23.5
2022-10-09T09:19:33.314Z,23
2022-10-09T09:21:49.429Z,23.4
2022-10-09T09:24:05.737Z,22.9
2022-10-09T09:26:22.653Z,22.9
2022-10-09T09:28:39.123Z,22.8
2022-10-09T09:30:55.058Z,22.3
2022-10-09T09:33:10.788Z,22.8
2022-10-09T09:35:27.072Z,22.7
2022-10-09T09:37:42.941Z,22.6
2022-10-09T09:40:53.552Z,22.7
2022-10-09T09:42:54.463Z,23.1
2022-10-09T09:43:09.620Z,22.5
2022-10-09T09:45:25.972Z,22.7
2022-10-09T09:47:41.668Z,23
2022-10-09T09:49:57.744Z,22.8
2022-10-09T09:52:41.611Z,23.2
2022-10-09T09:54:57.479Z,23.4
2022-10-09T09:57:28.809Z,23.3
2022-10-09T09:59:44.757Z,23.1
2022-10-09T10:02:00.894Z,23.3
2022-10-09T10:04:16.856Z,23.3
2022-10-09T10:06:32.979Z,23.2
2022-10-09T10:08:49.036Z,23.2
2022-10-09T10:11:05.315Z,23.3
2022-10-09T10:13:21.297Z,23.1
2022-10-09T10:15:37.372Z,23.2
2022-10-09T10:17:53.653Z,23.2
2022-10-09T10:20:09.804Z,23.1
2022-10-09T10:22:25.906Z,23
2022-10-09T10:24:42.074Z,23
2022-10-09T10:26:58.504Z,23.1
2022-10-09T10:28:59.536Z,23
2022-10-09T10:29:14.449Z,23.1
2022-10-09T10:31:30.599Z,23.7
2022-10-09T10:33:31.673Z,23.3
2022-10-09T10:33:46.732Z,23.2
2022-10-09T10:36:02.937Z,23.6
2022-10-09T10:38:19.380Z,23.4
2022-10-09T10:40:35.435Z,23.4
2022-10-09T10:42:53.142Z,23.3
2022-10-09T10:45:07.793Z,23.3
2022-10-09T10:47:24.007Z,23.6
2022-10-09T10:49:40.479Z,23.4
2022-10-09T10:51:56.497Z,23.4
2022-10-09T10:54:12.657Z,22.9
2022-10-09T10:56:28.860Z,23.1
2022-10-09T10:58:45.046Z,23.2
2022-10-09T11:01:01.386Z,23.5
2022-10-09T11:03:17.643Z,23.4
2022-10-09T11:05:33.752Z,23.1
2022-10-09T11:07:50.058Z,23.3
2022-10-09T11:10:06.234Z,23.3
2022-10-09T11:12:36.291Z,23.1
2022-10-09T11:14:46.669Z,22.9
2022-10-09T11:17:02.946Z,23.1
2022-10-09T11:19:19.200Z,23.2
2022-10-09T11:21:35.415Z,23.4
2022-10-09T11:23:51.611Z,23.8
2022-10-09T11:26:07.871Z,23.5
2022-10-09T11:28:24.168Z,23.5
2022-10-09T11:30:40.332Z,23.2
2022-10-09T11:32:56.538Z,23.3
2022-10-09T11:35:12.760Z,23.3
2022-10-09T11:37:28.969Z,23.2
2022-10-09T11:39:45.328Z,23.3
2022-10-09T11:42:01.440Z,23
2022-10-09T11:44:17.640Z,23.6
2022-10-09T11:46:33.804Z,23.6
2022-10-09T11:48:50.062Z,23.4
2022-10-09T11:51:06.246Z,23.3
2022-10-09T11:53:22.484Z,23.2
2022-10-09T11:55:38.744Z,23.4
2022-10-09T11:57:55.640Z,23.3
2022-10-09T12:00:11.149Z,22.7
2022-10-09T12:02:27.393Z,23.5
2022-10-09T12:04:55.123Z,23.1
2022-10-09T12:07:09.465Z,23.6
2022-10-09T12:09:25.723Z,23.3
2022-10-09T12:11:41.930Z,23.6
2022-10-09T12:13:58.058Z,23.6
2022-10-09T12:16:14.447Z,23.3
2022-10-09T12:18:30.538Z,23.2
2022-10-09T12:20:46.775Z,23.3
2022-10-09T12:23:31.847Z,23.1
2022-10-09T12:25:35.031Z,23.6
2022-10-09T12:27:51.373Z,23.3
2022-10-09T12:30:07.555Z,23.4
2022-10-09T12:32:23.750Z,23.2
2022-10-09T12:34:40.018Z,23.2
2022-10-09T12:36:56.201Z,23.8
2022-10-09T12:39:12.426Z,23.6
2022-10-09T12:41:28.735Z,23.1
2022-10-09T12:43:45.390Z,22.9
2022-10-09T12:46:01.349Z,23.1
2022-10-09T12:48:17.517Z,23.1
2022-10-09T12:50:34.157Z,23.1
2022-10-09T12:52:50.394Z,23.3
2022-10-09T12:55:06.452Z,23
2022-10-09T12:57:25.345Z,23.7
2022-10-09T12:59:38.867Z,23.6
2022-10-09T13:01:55.127Z,23.1
2022-10-09T13:04:11.258Z,23.4
2022-10-09T13:06:27.433Z,23.3
2022-10-09T13:08:43.955Z,23.2
2022-10-09T13:10:59.975Z,22.7
2022-10-09T13:13:16.273Z,23.4
2022-10-09T13:15:32.990Z,22.9
2022-10-09T13:17:48.925Z,22.7
2022-10-09T13:20:05.019Z,23.4
2022-10-09T13:22:21.287Z,23.1
2022-10-09T13:24:37.497Z,23.3
2022-10-09T13:26:53.832Z,23.3
2022-10-09T13:29:10.083Z,23.1
2022-10-09T13:31:26.529Z,23
2022-10-09T13:33:42.613Z,23.8
2022-10-09T13:35:58.890Z,23.3
2022-10-09T13:38:15.435Z,23.4
2022-10-09T13:40:31.639Z,23.1
2022-10-09T13:42:48.238Z,23.3
2022-10-09T13:45:04.356Z,23.3
2022-10-09T13:47:24.377Z,23.5
2022-10-09T13:49:37.109Z,22.7
2022-10-09T13:51:53.636Z,23.4
2022-10-09T13:54:10.176Z,23.2
2022-10-09T13:56:26.226Z,22.7
2022-10-09T13:58:42.742Z,23.1
2022-10-09T14:00:59.117Z,23.3
2022-10-09T14:03:15.569Z,23.2
2022-10-09T14:05:31.849Z,23.1
2022-10-09T14:07:48.337Z,23.2
2022-10-09T14:10:04.574Z,23.1
2022-10-09T14:12:21.215Z,23.3
2022-10-09T14:14:37.480Z,22.8
2022-10-09T14:16:53.822Z,23.4
2022-10-09T14:19:10.177Z,23.7
2022-10-09T14:21:26.414Z,23.3
2022-10-09T14:23:42.988Z,23.5
2022-10-09T14:25:59.504Z,23.3
2022-10-09T14:28:15.884Z,23.1
2022-10-09T14:30:32.191Z,23.3
2022-10-09T14:32:48.937Z,23.4
2022-10-09T14:35:04.967Z,23.4
2022-10-09T14:37:37.142Z,23.2
2022-10-09T14:39:44.513Z,22.7
2022-10-09T14:42:00.600Z,22.8
2022-10-09T14:44:16.926Z,23.3
2022-10-09T14:46:33.265Z,23.4
2022-10-09T14:48:49.724Z,23.3
2022-10-09T14:51:07.058Z,23.2
2022-10-09T14:53:22.230Z,23.3
2022-10-09T14:55:38.456Z,23.3
2022-10-09T14:57:54.854Z,23.4
2022-10-09T15:00:11.231Z,23.4
2022-10-09T15:02:27.474Z,23.1
2022-10-09T15:04:43.892Z,23.4
2022-10-09T15:07:00.318Z,22.6
2022-10-09T15:09:16.578Z,23.4
2022-10-09T15:11:32.868Z,23.4
2022-10-09T15:13:49.382Z,23.3
2022-10-09T15:16:05.588Z,23.4
2022-10-09T15:18:21.907Z,23.3
2022-10-09T15:20:38.294Z,23.3
2022-10-09T15:22:54.643Z,23.3
2022-10-09T15:25:11.227Z,23.1
2022-10-09T15:27:27.732Z,22.9
2022-10-09T15:29:44.010Z,23.1
2022-10-09T15:32:00.025Z,23.1
2022-10-09T15:34:16.033Z,22.8
2022-10-09T15:36:32.218Z,22.9
2022-10-09T15:38:48.881Z,23.1
2022-10-09T15:41:05.634Z,22.9
2022-10-09T15:43:22.471Z,22.7
2022-10-09T15:45:39.128Z,22.8
2022-10-09T15:48:07.658Z,22.4
2022-10-09T15:50:24.283Z,22.5
2022-10-09T15:52:40.972Z,22.6
2022-10-09T15:54:57.868Z,22.3
2022-10-09T15:57:14.288Z,22.4
2022-10-09T15:59:31.005Z,22.4
2022-10-09T16:01:47.972Z,22.3
2022-10-09T16:04:04.145Z,22.4
2022-10-09T16:06:20.312Z,22.9
2022-10-09T16:08:37.227Z,22.3
2022-10-09T16:10:54.488Z,22.4
2022-10-09T16:13:11.074Z,22.5
2022-10-09T16:15:27.962Z,22.4
2022-10-09T16:17:44.193Z,22.4
2022-10-09T16:19:59.947Z,23
2022-10-09T16:22:16.472Z,22.8
2022-10-09T16:24:32.701Z,22.6
2022-10-09T16:26:49.199Z,23
2022-10-09T16:29:05.643Z,22.4
2022-10-09T16:31:06.638Z,22.9
2022-10-09T16:31:21.475Z,22.6
2022-10-09T16:33:38.131Z,23
2022-10-09T16:35:55.212Z,22.4
2022-10-09T16:38:12.324Z,22.4
2022-10-09T16:40:49.758Z,22.4
2022-10-09T16:43:01.474Z,22.4
2022-10-09T16:45:18.491Z,22.5
2022-10-09T16:47:35.395Z,22.5
2022-10-09T16:49:52.252Z,22.1
2022-10-09T16:52:09.352Z,22.4
2022-10-09T16:54:26.196Z,22.6
2022-10-09T16:56:43.328Z,22.4
2022-10-09T16:59:00.133Z,22.4
2022-10-09T17:01:17.130Z,22.4
2022-10-09T17:03:33.374Z,22.5
2022-10-09T17:05:49.487Z,23
2022-10-09T17:07:51.494Z,22.6
2022-10-09T17:08:06.569Z,22.4
2022-10-09T17:10:23.470Z,22.4
2022-10-09T17:12:40.569Z,22.3
2022-10-09T17:14:42.331Z,22.4
2022-10-09T17:14:57.417Z,22.3
2022-10-09T17:16:59.194Z,22.3
2022-10-09T17:17:14.392Z,22.3
2022-10-09T17:19:31.412Z,22.3
2022-10-09T17:21:48.514Z,22.5
2022-10-09T17:24:04.724Z,22.3
2022-10-09T17:26:20.850Z,22.9
2022-10-09T17:28:37.769Z,22.4
2022-10-09T17:30:54.752Z,22.6
2022-10-09T17:33:13.349Z,22.5
2022-10-09T17:35:28.651Z,22.4
2022-10-09T17:37:45.666Z,22.4
2022-10-09T17:39:51.979Z,22.4
2022-10-09T17:40:02.611Z,22.1
2022-10-09T17:42:19.641Z,22.4
2022-10-09T17:44:36.522Z,22.5
2022-10-09T17:46:53.506Z,22.4
2022-10-09T17:49:11.510Z,22.4
2022-10-09T17:51:27.562Z,22.3
2022-10-09T17:53:44.516Z,22.7
2022-10-09T17:56:01.406Z,22.3
2022-10-09T17:58:18.381Z,22.4
2022-10-09T18:00:35.475Z,22.3
2022-10-09T18:02:52.468Z,22.4
2022-10-09T18:05:09.216Z,22.3
2022-10-09T18:07:25.823Z,22.3
2022-10-09T18:09:41.691Z,22.8
2022-10-09T18:11:58.801Z,22.6
2022-10-09T18:14:16.354Z,22.6
2022-10-09T18:16:36.071Z,22.4
2022-10-09T18:18:49.843Z,22.3
2022-10-09T18:21:06.825Z,22.4
2022-10-09T18:23:23.847Z,22.3
2022-10-09T18:25:40.815Z,22.3
2022-10-09T18:27:57.118Z,22.5
2022-10-09T18:30:13.406Z,23
2022-10-09T18:32:30.487Z,22.5
2022-10-09T18:34:46.888Z,22.6
2022-10-09T18:37:03.281Z,23.1
2022-10-09T18:39:19.783Z,22.4
2022-10-09T18:41:21.039Z,22.9
2022-10-09T18:41:36.238Z,22.4
2022-10-09T18:43:53.267Z,22.6
2022-10-09T18:46:10.344Z,22.5
2022-10-09T18:48:27.379Z,22.3
2022-10-09T18:50:44.405Z,22.4
2022-10-09T18:53:01.681Z,22.6
2022-10-09T18:55:18.477Z,22.4
2022-10-09T18:57:35.535Z,22.4
2022-10-09T18:59:52.448Z,22.3
2022-10-09T19:02:09.490Z,22.4
2022-10-09T19:04:26.446Z,22.4
2022-10-09T19:06:43.438Z,22.3
2022-10-09T19:08:59.795Z,22.3
2022-10-09T19:11:15.544Z,23
2022-10-09T19:13:32.063Z,22.8
2022-10-09T19:15:49.139Z,22.7
2022-10-09T19:18:06.221Z,22.5
2022-10-09T19:20:23.241Z,22.5
2022-10-09T19:22:40.266Z,22.6
2022-10-09T19:24:57.203Z,22.4
2022-10-09T19:27:14.810Z,22.4
2022-10-09T19:29:31.182Z,22.3
2022-10-09T19:31:47.546Z,22.4
2022-10-09T19:34:03.810Z,22.9
2022-10-09T19:36:20.944Z,22.4
2022-10-09T19:38:38.339Z,22.4
2022-10-09T19:40:54.433Z,22.5
2022-10-09T19:43:10.297Z,23
2022-10-09T19:45:26.891Z,22.8
2022-10-09T19:47:44.037Z,22.6
2022-10-09T19:50:01.056Z,22.7
2022-10-09T19:52:18.079Z,22.3
2022-10-09T19:54:35.146Z,22.3
2022-10-09T19:56:52.089Z,22.5
2022-10-09T19:59:09.050Z,22.6
2022-10-09T20:01:26.121Z,22.3
2022-10-09T20:03:43.066Z,22.6
2022-10-09T20:05:59.391Z,22.4
2022-10-09T20:08:15.744Z,23
2022-10-09T20:10:32.327Z,22.6
2022-10-09T20:12:48.639Z,23.1
2022-10-09T20:15:04.441Z,22.9
2022-10-09T20:17:21.205Z,23.1
2022-10-09T20:19:41.221Z,22.8
2022-10-09T20:21:40.143Z,22.6
2022-10-09T20:21:55.500Z,22.4
2022-10-09T20:24:12.805Z,22.5
2022-10-09T20:26:29.586Z,22.6
2022-10-09T20:28:46.647Z,22.4
2022-10-09T20:31:03.540Z,22.7
2022-10-09T20:33:20.086Z,22.4
2022-10-09T20:35:35.905Z,23
2022-10-09T20:37:52.504Z,22.6
2022-10-09T20:40:09.647Z,22.8
2022-10-09T20:42:26.768Z,22.5
2022-10-09T20:44:43.747Z,22.4
2022-10-09T20:47:00.846Z,22.5
2022-10-09T20:49:18.086Z,22.4
2022-10-09T20:51:34.944Z,22.5
2022-10-09T20:53:52.001Z,22.4
2022-10-09T20:56:09.011Z,22.4
2022-10-09T20:58:26.143Z,22.4
2022-10-09T21:00:43.204Z,22.5
2022-10-09T21:03:00.190Z,22.6
2022-10-09T21:05:17.186Z,22.4
2022-10-09T21:07:34.166Z,22.5
2022-10-09T21:09:51.410Z,22.4
2022-10-09T21:12:08.222Z,22.6
2022-10-09T21:14:25.211Z,22.4
2022-10-09T21:16:42.214Z,22.4
2022-10-09T21:18:58.597Z,22.3
2022-10-09T21:21:15.059Z,22.9
2022-10-09T21:23:31.741Z,22.6
2022-10-09T21:25:48.246Z,22.9
2022-10-09T21:28:04.998Z,22.7
2022-10-09T21:30:21.384Z,22.9
2022-10-09T21:32:38.460Z,22.6
2022-10-09T21:34:55.539Z,22.6
2022-10-09T21:37:28.080Z,22.3
2022-10-09T21:39:45.144Z,22.3
2022-10-09T21:42:02.222Z,22.4
2022-10-09T21:44:19.228Z,22.6
2022-10-09T21:46:36.252Z,22.4
2022-10-09T21:48:38.042Z,22.3
2022-10-09T21:48:53.969Z,22.2
2022-10-09T21:51:10.277Z,22.6
2022-10-09T21:53:12.091Z,22.5
2022-10-09T21:53:27.209Z,22.2
2022-10-09T21:55:44.325Z,22.3
2022-10-09T21:58:00.755Z,22.4
2022-10-09T22:00:17.163Z,22.9
2022-10-09T22:02:34.324Z,22.8
2022-10-09T22:04:50.745Z,22.5
2022-10-09T22:07:07.220Z,23.3
2022-10-09T22:09:24.980Z,22.7
2022-10-09T22:11:41.399Z,22.6
2022-10-09T22:13:58.599Z,22.6
2022-10-09T22:16:15.675Z,22.4
2022-10-09T22:18:32.714Z,22.4
2022-10-09T22:20:49.899Z,22.5
2022-10-09T22:23:06.815Z,22.4
2022-10-09T22:25:23.783Z,22.6
2022-10-09T22:27:40.842Z,22.2
2022-10-09T22:29:57.810Z,22.4
2022-10-09T22:32:14.900Z,22.6
2022-10-09T22:34:31.994Z,22.5
2022-10-09T22:36:48.384Z,22.4
2022-10-09T22:39:04.827Z,22.9
2022-10-09T22:41:21.843Z,22.7
2022-10-09T22:43:38.903Z,22.5
2022-10-09T22:45:55.456Z,22.8
2022-10-09T22:48:11.815Z,22.9
2022-10-09T22:50:29.088Z,22.6
2022-10-09T22:52:46.244Z,22.4
2022-10-09T22:55:03.186Z,22.5
2022-10-09T22:57:20.256Z,22.4
2022-10-09T22:59:36.747Z,22.4
2022-10-09T23:01:52.717Z,22.9
2022-10-09T23:04:08.957Z,22.6
2022-10-09T23:06:25.988Z,22.9
2022-10-09T23:08:42.834Z,22.5
2022-10-09T23:10:44.780Z,22.5
2022-10-09T23:11:00.020Z,22.4
2022-10-09T23:13:17.187Z,22.6
2022-10-09T23:15:34.146Z,22.3
2022-10-09T23:17:51.141Z,22.4
2022-10-09T23:20:08.601Z,22.4
2022-10-09T23:22:25.593Z,22.4
2022-10-09T23:24:27.244Z,22.3
2022-10-09T23:24:42.411Z,22.7
2022-10-09T23:26:58.761Z,22.8
2022-10-09T23:29:16.141Z,22.4
2022-10-09T23:31:33.321Z,22.4
2022-10-09T23:33:50.380Z,22.2
2022-10-09T23:36:07.540Z,22.5
2022-10-09T23:38:24.871Z,22.3
2022-10-09T23:40:41.961Z,22.4
2022-10-09T23:42:59.063Z,22.4
2022-10-09T23:45:16.281Z,22.4
2022-10-09T23:47:33.383Z,22.4
2022-10-09T23:49:51.125Z,22.5
2022-10-09T23:52:07.803Z,22.6
2022-10-09T23:54:24.158Z,22.6
2022-10-09T23:56:40.392Z,22.9
2022-10-09T23:58:57.028Z,22.7
